sensor_id;sensor_type;location;lat;lon;timestamp;pressure;altitude;pressure_sealevel;temperature;humidity
49801;BME280;35698;50.232;30.540;2022-09-27T00:00:13;99429.16;;;21.78;49.93
49801;BME280;35698;50.232;30.540;2022-09-27T00:01:17;99429.87;;;21.72;50.00
49801;BME280;35698;50.232;30.540;2022-09-27T00:02:28;99434.00;;;21.82;49.77
49801;BME280;35698;50.232;30.540;2022-09-27T00:03:31;99433.23;;;21.74;50.03
49801;BME280;35698;50.232;30.540;2022-09-27T00:04:35;99426.66;;;21.76;49.97
49801;BME280;35698;50.232;30.540;2022-09-27T00:05:49;99425.88;;;21.90;49.47
49801;BME280;35698;50.232;30.540;2022-09-27T00:06:52;99423.61;;;21.79;49.58
49801;BME280;35698;50.232;30.540;2022-09-27T00:07:56;99433.17;;;21.82;49.53
49801;BME280;35698;50.232;30.540;2022-09-27T00:09:08;99431.73;;;21.94;49.31
49801;BME280;35698;50.232;30.540;2022-09-27T00:10:12;99431.14;;;21.84;49.46
49801;BME280;35698;50.232;30.540;2022-09-27T00:11:35;99425.48;;;22.02;49.47
49801;BME280;35698;50.232;30.540;2022-09-27T00:12:39;99429.22;;;21.92;49.26
49801;BME280;35698;50.232;30.540;2022-09-27T00:13:43;99427.38;;;21.93;49.37
49801;BME280;35698;50.232;30.540;2022-09-27T00:14:46;99425.99;;;21.97;49.36
49801;BME280;35698;50.232;30.540;2022-09-27T00:15:58;99426.44;;;22.09;49.23
49801;BME280;35698;50.232;30.540;2022-09-27T00:17:02;99419.23;;;22.01;49.15
49801;BME280;35698;50.232;30.540;2022-09-27T00:18:06;99419.23;;;22.01;49.06
49801;BME280;35698;50.232;30.540;2022-09-27T00:19:19;99419.02;;;22.11;49.12
49801;BME280;35698;50.232;30.540;2022-09-27T00:20:22;99418.25;;;22.02;49.21
49801;BME280;35698;50.232;30.540;2022-09-27T00:21:34;99424.33;;;22.19;49.17
49801;BME280;35698;50.232;30.540;2022-09-27T00:22:37;99417.71;;;22.07;49.14
49801;BME280;35698;50.232;30.540;2022-09-27T00:23:41;99419.38;;;22.08;49.09
49801;BME280;35698;50.232;30.540;2022-09-27T00:24:44;99413.82;;;22.09;49.10
49801;BME280;35698;50.232;30.540;2022-09-27T00:25:56;99407.64;;;22.23;49.06
49801;BME280;35698;50.232;30.540;2022-09-27T00:27:00;99413.64;;;22.11;49.02
49801;BME280;35698;50.232;30.540;2022-09-27T00:28:03;99406.59;;;22.10;48.96
49801;BME280;35698;50.232;30.540;2022-09-27T00:29:08;99410.77;;;22.12;49.03
49801;BME280;35698;50.232;30.540;2022-09-27T00:30:19;99406.16;;;22.21;48.98
49801;BME280;35698;50.232;30.540;2022-09-27T00:31:25;99409.09;;;22.11;48.88
49801;BME280;35698;50.232;30.540;2022-09-27T00:32:37;99406.70;;;22.16;48.90
49801;BME280;35698;50.232;30.540;2022-09-27T00:33:40;99401.43;;;22.00;49.02
49801;BME280;35698;50.232;30.540;2022-09-27T00:34:43;99401.61;;;21.99;49.05
49801;BME280;35698;50.232;30.540;2022-09-27T00:36:01;99398.34;;;22.11;48.87
49801;BME280;35698;50.232;30.540;2022-09-27T00:37:00;99400.41;;;22.01;48.83
49801;BME280;35698;50.232;30.540;2022-09-27T00:38:03;99394.05;;;22.02;48.90
49801;BME280;35698;50.232;30.540;2022-09-27T00:39:06;99394.20;;;22.01;48.94
49801;BME280;35698;50.232;30.540;2022-09-27T00:40:18;99405.31;;;22.20;48.83
49801;BME280;35698;50.232;30.540;2022-09-27T00:42:30;99395.36;;;22.06;48.89
49801;BME280;35698;50.232;30.540;2022-09-27T00:43:50;99398.27;;;22.19;48.84
49801;BME280;35698;50.232;30.540;2022-09-27T00:45:06;99386.27;;;22.07;48.94
49801;BME280;35698;50.232;30.540;2022-09-27T00:46:34;99376.93;;;22.18;48.93
49801;BME280;35698;50.232;30.540;2022-09-27T00:47:41;99378.39;;;22.06;48.95
49801;BME280;35698;50.232;30.540;2022-09-27T00:48:45;99380.53;;;22.10;48.88
49801;BME280;35698;50.232;30.540;2022-09-27T00:51:12;99381.73;;;22.08;48.86
49801;BME280;35698;50.232;30.540;2022-09-27T00:52:29;99377.12;;;21.93;49.08
49801;BME280;35698;50.232;30.540;2022-09-27T00:53:47;99377.08;;;22.02;48.90
49801;BME280;35698;50.232;30.540;2022-09-27T00:55:00;99375.98;;;21.88;49.02
49801;BME280;35698;50.232;30.540;2022-09-27T00:56:19;99374.25;;;21.95;49.21
49801;BME280;35698;50.232;30.540;2022-09-27T00:57:24;99372.34;;;21.81;49.20
49801;BME280;35698;50.232;30.540;2022-09-27T00:58:41;99376.94;;;21.95;49.22
49801;BME280;35698;50.232;30.540;2022-09-27T01:01:04;99372.87;;;21.99;49.14
49801;BME280;35698;50.232;30.540;2022-09-27T01:02:08;99364.88;;;21.91;49.14
49801;BME280;35698;50.232;30.540;2022-09-27T01:03:16;99367.20;;;21.94;49.09
49801;BME280;35698;50.232;30.540;2022-09-27T01:04:28;99370.97;;;22.08;48.99
49801;BME280;35698;50.232;30.540;2022-09-27T01:05:33;99364.62;;;22.01;48.90
49801;BME280;35698;50.232;30.540;2022-09-27T01:06:44;99372.46;;;22.10;48.92
49801;BME280;35698;50.232;30.540;2022-09-27T01:07:47;99368.33;;;22.00;48.92
49801;BME280;35698;50.232;30.540;2022-09-27T01:08:51;99356.08;;;21.97;48.90
49801;BME280;35698;50.232;30.540;2022-09-27T01:09:54;99356.73;;;21.99;48.95
49801;BME280;35698;50.232;30.540;2022-09-27T01:11:23;99350.95;;;22.10;49.01
49801;BME280;35698;50.232;30.540;2022-09-27T01:13:42;99355.42;;;21.95;49.00
49801;BME280;35698;50.232;30.540;2022-09-27T01:18:14;99354.84;;;22.08;49.09
49801;BME280;35698;50.232;30.540;2022-09-27T01:22:17;99348.48;;;22.01;48.97
49801;BME280;35698;50.232;30.540;2022-09-27T01:25:02;99342.41;;;22.07;48.97
49801;BME280;35698;50.232;30.540;2022-09-27T01:30:27;99329.80;;;22.07;48.95
49801;BME280;35698;50.232;30.540;2022-09-27T01:31:39;99329.84;;;21.99;48.99
49801;BME280;35698;50.232;30.540;2022-09-27T01:34:46;99319.09;;;21.99;48.99
49801;BME280;35698;50.232;30.540;2022-09-27T01:39:57;99321.44;;;22.02;48.91
49801;BME280;35698;50.232;30.540;2022-09-27T01:44:53;99324.46;;;21.99;49.35
49801;BME280;35698;50.232;30.540;2022-09-27T01:46:03;99324.72;;;21.89;49.38
49801;BME280;35698;50.232;30.540;2022-09-27T01:47:20;99323.52;;;21.92;49.31
49801;BME280;35698;50.232;30.540;2022-09-27T01:48:28;99322.47;;;21.78;49.51
49801;BME280;35698;50.232;30.540;2022-09-27T01:51:22;99319.34;;;21.89;49.77
49801;BME280;35698;50.232;30.540;2022-09-27T01:53:43;99321.85;;;21.91;49.38
49801;BME280;35698;50.232;30.540;2022-09-27T01:54:50;99320.98;;;21.76;49.24
49801;BME280;35698;50.232;30.540;2022-09-27T01:56:05;99313.02;;;21.82;49.66
49801;BME280;35698;50.232;30.540;2022-09-27T01:57:12;99307.91;;;21.73;49.71
49801;BME280;35698;50.232;30.540;2022-09-27T01:58:33;99311.83;;;21.85;49.58
49801;BME280;35698;50.232;30.540;2022-09-27T01:59:44;99312.55;;;21.79;49.59
49801;BME280;35698;50.232;30.540;2022-09-27T02:00:55;99310.45;;;21.89;49.60
49801;BME280;35698;50.232;30.540;2022-09-27T02:02:02;99305.50;;;21.78;49.71
49801;BME280;35698;50.232;30.540;2022-09-27T02:03:18;99307.39;;;21.92;49.70
49801;BME280;35698;50.232;30.540;2022-09-27T02:04:23;99307.65;;;21.82;49.66
49801;BME280;35698;50.232;30.540;2022-09-27T02:06:57;99304.52;;;21.93;49.70
49801;BME280;35698;50.232;30.540;2022-09-27T02:08:07;99308.48;;;21.83;49.73
49801;BME280;35698;50.232;30.540;2022-09-27T02:09:27;99313.23;;;21.96;49.49
49801;BME280;35698;50.232;30.540;2022-09-27T02:10:39;99307.10;;;21.87;49.40
49801;BME280;35698;50.232;30.540;2022-09-27T02:11:54;99305.64;;;21.99;49.43
49801;BME280;35698;50.232;30.540;2022-09-27T02:13:18;99305.25;;;21.87;49.40
49801;BME280;35698;50.232;30.540;2022-09-27T02:14:36;99303.92;;;22.06;49.21
49801;BME280;35698;50.232;30.540;2022-09-27T02:15:57;99297.57;;;21.99;49.07
49801;BME280;35698;50.232;30.540;2022-09-27T02:21:00;99299.74;;;22.04;48.87
49801;BME280;35698;50.232;30.540;2022-09-27T02:22:34;99298.72;;;22.05;49.02
49801;BME280;35698;50.232;30.540;2022-09-27T02:23:53;99300.34;;;21.91;49.18
49801;BME280;35698;50.232;30.540;2022-09-27T02:25:22;99311.64;;;21.86;49.36
49801;BME280;35698;50.232;30.540;2022-09-27T02:26:40;99292.74;;;21.95;49.45
49801;BME280;35698;50.232;30.540;2022-09-27T02:29:08;99291.59;;;21.74;49.75
49801;BME280;35698;50.232;30.540;2022-09-27T02:30:20;99288.75;;;21.90;49.79
49801;BME280;35698;50.232;30.540;2022-09-27T02:31:23;99293.73;;;21.79;49.65
49801;BME280;35698;50.232;30.540;2022-09-27T02:32:27;99298.17;;;21.72;49.76
49801;BME280;35698;50.232;30.540;2022-09-27T02:35:03;99292.72;;;21.80;49.72
49801;BME280;35698;50.232;30.540;2022-09-27T02:36:06;99292.61;;;21.73;49.62
49801;BME280;35698;50.232;30.540;2022-09-27T02:37:18;99288.54;;;21.77;49.76
49801;BME280;35698;50.232;30.540;2022-09-27T02:38:21;99287.13;;;21.67;49.81
49801;BME280;35698;50.232;30.540;2022-09-27T02:39:26;99290.47;;;21.69;49.88
49801;BME280;35698;50.232;30.540;2022-09-27T02:40:45;99292.35;;;21.83;49.78
49801;BME280;35698;50.232;30.540;2022-09-27T02:41:49;99285.09;;;21.69;49.95
49801;BME280;35698;50.232;30.540;2022-09-27T02:42:52;99281.39;;;21.70;49.81
49801;BME280;35698;50.232;30.540;2022-09-27T02:44:07;99282.15;;;21.78;49.74
49801;BME280;35698;50.232;30.540;2022-09-27T02:45:12;99281.57;;;21.68;49.72
49801;BME280;35698;50.232;30.540;2022-09-27T02:48:03;99274.08;;;21.64;49.91
49801;BME280;35698;50.232;30.540;2022-09-27T02:50:49;99268.53;;;21.65;50.14
49801;BME280;35698;50.232;30.540;2022-09-27T03:03:17;99267.29;;;21.53;50.23
49801;BME280;35698;50.232;30.540;2022-09-27T03:06:59;99256.55;;;21.68;50.14
49801;BME280;35698;50.232;30.540;2022-09-27T03:08:03;99249.79;;;21.57;50.09
49801;BME280;35698;50.232;30.540;2022-09-27T03:09:21;99254.22;;;21.50;50.33
49801;BME280;35698;50.232;30.540;2022-09-27T03:10:32;99247.39;;;21.62;50.42
49801;BME280;35698;50.232;30.540;2022-09-27T03:11:36;99240.60;;;21.51;50.30
49801;BME280;35698;50.232;30.540;2022-09-27T03:12:50;99247.86;;;21.66;50.11
49801;BME280;35698;50.232;30.540;2022-09-27T03:13:54;99236.53;;;21.55;50.15
49801;BME280;35698;50.232;30.540;2022-09-27T03:15:00;99239.77;;;21.51;50.29
49801;BME280;35698;50.232;30.540;2022-09-27T03:16:11;99243.22;;;21.59;50.36
49801;BME280;35698;50.232;30.540;2022-09-27T03:17:14;99237.27;;;21.49;50.37
49801;BME280;35698;50.232;30.540;2022-09-27T03:18:17;99237.91;;;21.51;50.38
49801;BME280;35698;50.232;30.540;2022-09-27T03:19:21;99242.09;;;21.54;50.34
49801;BME280;35698;50.232;30.540;2022-09-27T03:20:31;99245.17;;;21.66;50.40
49801;BME280;35698;50.232;30.540;2022-09-27T03:21:35;99248.12;;;21.56;50.36
49801;BME280;35698;50.232;30.540;2022-09-27T03:22:46;99247.09;;;21.72;50.10
49801;BME280;35698;50.232;30.540;2022-09-27T03:23:49;99251.93;;;21.62;50.17
49801;BME280;35698;50.232;30.540;2022-09-27T03:25:00;99248.41;;;21.76;50.04
49801;BME280;35698;50.232;30.540;2022-09-27T03:26:04;99247.39;;;21.62;50.09
49801;BME280;35698;50.232;30.540;2022-09-27T03:27:07;99243.22;;;21.59;50.18
49801;BME280;35698;50.232;30.540;2022-09-27T03:28:25;99238.67;;;21.75;50.08
49801;BME280;35698;50.232;30.540;2022-09-27T03:29:28;99241.83;;;21.64;50.02
49801;BME280;35698;50.232;30.540;2022-09-27T03:30:39;99242.01;;;21.77;50.06
49801;BME280;35698;50.232;30.540;2022-09-27T03:31:42;99244.96;;;21.67;50.07
49801;BME280;35698;50.232;30.540;2022-09-27T03:32:53;99240.81;;;21.79;49.82
49801;BME280;35698;50.232;30.540;2022-09-27T03:33:57;99245.42;;;21.71;49.92
49801;BME280;35698;50.232;30.540;2022-09-27T03:35:08;99251.01;;;21.84;50.01
49801;BME280;35698;50.232;30.540;2022-09-27T03:36:11;99250.44;;;21.74;49.84
49801;BME280;35698;50.232;30.540;2022-09-27T03:37:15;99245.89;;;21.74;49.88
49801;BME280;35698;50.232;30.540;2022-09-27T03:38:18;99243.21;;;21.74;49.90
49801;BME280;35698;50.232;30.540;2022-09-27T03:39:21;99247.56;;;21.75;49.91
49801;BME280;35698;50.232;30.540;2022-09-27T03:40:32;99244.25;;;21.88;49.90
49801;BME280;35698;50.232;30.540;2022-09-27T03:41:36;99239.14;;;21.78;49.87
49801;BME280;35698;50.232;30.540;2022-09-27T03:42:39;99240.98;;;21.78;50.00
49801;BME280;35698;50.232;30.540;2022-09-27T03:43:43;99239.97;;;21.79;50.00
49801;BME280;35698;50.232;30.540;2022-09-27T03:44:46;99248.03;;;21.79;50.01
49801;BME280;35698;50.232;30.540;2022-09-27T03:45:57;99248.23;;;21.92;49.89
49801;BME280;35698;50.232;30.540;2022-09-27T03:47:00;99245.16;;;21.80;49.93
49801;BME280;35698;50.232;30.540;2022-09-27T03:48:11;99250.09;;;21.91;49.89
49801;BME280;35698;50.232;30.540;2022-09-27T03:49:15;99248.03;;;21.79;49.94
49801;BME280;35698;50.232;30.540;2022-09-27T03:50:29;99246.56;;;21.91;49.78
49801;BME280;35698;50.232;30.540;2022-09-27T03:51:32;99241.36;;;21.75;49.70
49801;BME280;35698;50.232;30.540;2022-09-27T03:52:36;99245.89;;;21.74;49.89
49801;BME280;35698;50.232;30.540;2022-09-27T03:53:40;99246.08;;;21.73;50.09
49801;BME280;35698;50.232;30.540;2022-09-27T03:54:44;99241.36;;;21.75;50.15
49801;BME280;35698;50.232;30.540;2022-09-27T03:55:55;99237.84;;;21.89;50.05
49801;BME280;35698;50.232;30.540;2022-09-27T03:56:58;99240.16;;;21.77;50.03
49801;BME280;35698;50.232;30.540;2022-09-27T03:58:09;99234.98;;;21.90;50.06
49801;BME280;35698;50.232;30.540;2022-09-27T03:59:12;99237.94;;;21.81;50.10
49801;BME280;35698;50.232;30.540;2022-09-27T04:00:23;99240.82;;;21.94;50.01
49801;BME280;35698;50.232;30.540;2022-09-27T04:01:27;99234.88;;;21.84;49.97
49801;BME280;35698;50.232;30.540;2022-09-27T04:02:31;99231.82;;;21.87;49.89
49801;BME280;35698;50.232;30.540;2022-09-27T04:03:34;99238.50;;;21.91;49.86
49801;BME280;35698;50.232;30.540;2022-09-27T04:04:37;99230.44;;;21.91;49.66
49801;BME280;35698;50.232;30.540;2022-09-27T04:05:48;99235.54;;;22.01;49.68
49801;BME280;35698;50.232;30.540;2022-09-27T04:06:52;99225.89;;;21.91;49.66
49801;BME280;35698;50.232;30.540;2022-09-27T04:07:55;99228.39;;;21.93;49.73
49801;BME280;35698;50.232;30.540;2022-09-27T04:08:59;99228.77;;;21.90;49.85
49801;BME280;35698;50.232;30.540;2022-09-27T04:10:11;99228.16;;;22.03;49.73
49801;BME280;35698;50.232;30.540;2022-09-27T04:11:14;99221.34;;;21.92;49.69
49801;BME280;35698;50.232;30.540;2022-09-27T04:12:17;99220.52;;;21.91;49.82
49801;BME280;35698;50.232;30.540;2022-09-27T04:13:21;99230.06;;;21.94;49.91
49801;BME280;35698;50.232;30.540;2022-09-27T04:14:24;99221.63;;;21.97;49.81
49801;BME280;35698;50.232;30.540;2022-09-27T04:15:35;99234.09;;;22.13;49.65
49801;BME280;35698;50.232;30.540;2022-09-27T04:16:39;99222.77;;;22.03;49.54
49801;BME280;35698;50.232;30.540;2022-09-27T04:17:43;99221.56;;;22.05;49.57
49801;BME280;35698;50.232;30.540;2022-09-27T04:18:54;99219.25;;;22.17;49.53
49801;BME280;35698;50.232;30.540;2022-09-27T04:19:57;99224.44;;;22.04;49.66
49801;BME280;35698;50.232;30.540;2022-09-27T04:21:08;99220.08;;;22.17;49.66
49801;BME280;35698;50.232;30.540;2022-09-27T04:22:11;99213.77;;;22.10;49.45
49801;BME280;35698;50.232;30.540;2022-09-27T04:23:15;99227.23;;;22.10;49.28
49801;BME280;35698;50.232;30.540;2022-09-27T04:24:18;99224.91;;;22.07;49.40
49801;BME280;35698;50.232;30.540;2022-09-27T04:25:29;99223.61;;;22.18;49.69
49801;BME280;35698;50.232;30.540;2022-09-27T04:26:32;99218.59;;;22.15;49.43
49801;BME280;35698;50.232;30.540;2022-09-27T04:27:36;99227.88;;;22.12;49.43
49801;BME280;35698;50.232;30.540;2022-09-27T04:28:40;99219.43;;;22.15;49.19
49801;BME280;35698;50.232;30.540;2022-09-27T04:29:51;99221.84;;;22.25;49.30
49801;BME280;35698;50.232;30.540;2022-09-27T04:30:55;99225.55;;;22.09;49.58
49801;BME280;35698;50.232;30.540;2022-09-27T04:32:06;99217.66;;;22.22;49.61
49801;BME280;35698;50.232;30.540;2022-09-27T04:33:09;99211.09;;;22.10;49.64
49801;BME280;35698;50.232;30.540;2022-09-27T04:34:12;99213.86;;;22.17;49.47
49801;BME280;35698;50.232;30.540;2022-09-27T04:35:24;99215.52;;;22.33;49.27
49801;BME280;35698;50.232;30.540;2022-09-27T04:36:27;99211.27;;;22.23;49.31
49801;BME280;35698;50.232;30.540;2022-09-27T04:37:30;99211.53;;;22.29;49.09
49801;BME280;35698;50.232;30.540;2022-09-27T04:38:34;99215.06;;;22.29;48.93
49801;BME280;35698;50.232;30.540;2022-09-27T04:39:45;99211.89;;;22.40;49.02
49801;BME280;35698;50.232;30.540;2022-09-27T04:40:49;99216.73;;;22.30;48.88
49801;BME280;35698;50.232;30.540;2022-09-27T04:41:52;99216.45;;;22.25;48.75
49801;BME280;35698;50.232;30.540;2022-09-27T04:42:55;99211.64;;;22.20;49.07
49801;BME280;35698;50.232;30.540;2022-09-27T04:44:06;99215.98;;;22.36;49.15
49801;BME280;35698;50.232;30.540;2022-09-27T04:45:10;99213.58;;;22.27;49.16
49801;BME280;35698;50.232;30.540;2022-09-27T04:46:21;99210.80;;;22.56;48.73
49801;BME280;35698;50.232;30.540;2022-09-27T04:47:25;99220.50;;;22.50;48.58
49801;BME280;35698;50.232;30.540;2022-09-27T04:48:28;99211.89;;;22.40;48.73
49801;BME280;35698;50.232;30.540;2022-09-27T04:49:32;99212.72;;;22.41;48.77
49801;BME280;35698;50.232;30.540;2022-09-27T04:50:43;99202.88;;;22.48;48.75
49801;BME280;35698;50.232;30.540;2022-09-27T04:51:46;99207.07;;;22.36;48.90
49801;BME280;35698;50.232;30.540;2022-09-27T04:52:52;99200.48;;;22.38;48.88
49801;BME280;35698;50.232;30.540;2022-09-27T04:53:56;99206.05;;;22.37;48.88
49801;BME280;35698;50.232;30.540;2022-09-27T04:55:09;99203.33;;;22.51;48.86
49801;BME280;35698;50.232;30.540;2022-09-27T04:56:14;99204.66;;;22.41;48.87
49801;BME280;35698;50.232;30.540;2022-09-27T04:57:26;99195.07;;;22.53;48.74
49801;BME280;35698;50.232;30.540;2022-09-27T04:58:29;99194.99;;;22.46;48.67
49801;BME280;35698;50.232;30.540;2022-09-27T04:59:32;99202.23;;;22.46;48.70
49801;BME280;35698;50.232;30.540;2022-09-27T05:00:47;99191.97;;;22.56;48.75
49801;BME280;35698;50.232;30.540;2022-09-27T05:01:51;99189.16;;;22.43;49.21
49801;BME280;35698;50.232;30.540;2022-09-27T05:02:54;99192.22;;;22.40;49.39
49801;BME280;35698;50.232;30.540;2022-09-27T05:03:58;99187.86;;;22.39;49.38
49801;BME280;35698;50.232;30.540;2022-09-27T05:05:09;99188.20;;;22.50;49.31
49801;BME280;35698;50.232;30.540;2022-09-27T05:06:13;99193.44;;;22.37;49.43
49801;BME280;35698;50.232;30.540;2022-09-27T05:07:16;99188.88;;;22.38;49.16
49801;BME280;35698;50.232;30.540;2022-09-27T05:08:19;99175.81;;;22.35;49.46
49801;BME280;35698;50.232;30.540;2022-09-27T05:09:23;99181.84;;;22.37;49.54
49801;BME280;35698;50.232;30.540;2022-09-27T05:10:35;99182.38;;;22.47;49.43
49801;BME280;35698;50.232;30.540;2022-09-27T05:11:42;99186.20;;;22.38;49.41
49801;BME280;35698;50.232;30.540;2022-09-27T05:13:00;99183.66;;;22.51;49.21
49801;BME280;35698;50.232;30.540;2022-09-27T05:14:04;99178.13;;;22.38;49.30
49801;BME280;35698;50.232;30.540;2022-09-27T05:15:15;99180.32;;;22.49;49.24
49801;BME280;35698;50.232;30.540;2022-09-27T05:16:18;99183.31;;;22.39;48.96
49801;BME280;35698;50.232;30.540;2022-09-27T05:17:29;99186.27;;;22.44;49.05
49801;BME280;35698;50.232;30.540;2022-09-27T05:18:34;99180.81;;;22.38;49.08
49801;BME280;35698;50.232;30.540;2022-09-27T05:19:48;99184.91;;;22.55;49.14
49801;BME280;35698;50.232;30.540;2022-09-27T05:20:51;99182.38;;;22.47;49.06
49801;BME280;35698;50.232;30.540;2022-09-27T05:21:54;99179.30;;;22.50;48.95
49801;BME280;35698;50.232;30.540;2022-09-27T05:23:17;99186.99;;;22.53;48.87
49801;BME280;35698;50.232;30.540;2022-09-27T05:24:21;99184.08;;;22.54;48.74
49801;BME280;35698;50.232;30.540;2022-09-27T05:25:32;99176.72;;;22.63;48.74
49801;BME280;35698;50.232;30.540;2022-09-27T05:26:35;99177.44;;;22.50;48.84
49801;BME280;35698;50.232;30.540;2022-09-27T05:27:47;99183.13;;;22.62;48.96
49801;BME280;35698;50.232;30.540;2022-09-27T05:28:51;99170.39;;;22.49;48.94
49801;BME280;35698;50.232;30.540;2022-09-27T05:30:03;99180.44;;;22.62;48.77
49801;BME280;35698;50.232;30.540;2022-09-27T05:31:06;99184.49;;;22.51;48.84
49801;BME280;35698;50.232;30.540;2022-09-27T05:32:10;99184.91;;;22.55;48.75
49801;BME280;35698;50.232;30.540;2022-09-27T05:33:21;99182.56;;;22.67;48.81
49801;BME280;35698;50.232;30.540;2022-09-27T05:34:25;99183.70;;;22.57;48.85
49801;BME280;35698;50.232;30.540;2022-09-27T05:35:36;99184.30;;;22.74;48.69
49801;BME280;35698;50.232;30.540;2022-09-27T05:36:42;99188.13;;;22.65;48.71
49801;BME280;35698;50.232;30.540;2022-09-27T05:40:53;99190.89;;;22.72;48.71
49801;BME280;35698;50.232;30.540;2022-09-27T05:41:58;99196.97;;;22.59;48.77
49801;BME280;35698;50.232;30.540;2022-09-27T05:43:09;99197.12;;;22.72;48.69
49801;BME280;35698;50.232;30.540;2022-09-27T05:44:32;99197.80;;;22.60;48.81
49801;BME280;35698;50.232;30.540;2022-09-27T05:47:06;99193.70;;;22.64;49.00
49801;BME280;35698;50.232;30.540;2022-09-27T05:48:10;99196.92;;;22.52;49.06
49801;BME280;35698;50.232;30.540;2022-09-27T05:50:34;99198.71;;;22.67;49.10
49801;BME280;35698;50.232;30.540;2022-09-27T05:51:38;99193.25;;;22.60;49.03
49801;BME280;35698;50.232;30.540;2022-09-27T05:52:53;99188.84;;;22.74;48.84
49801;BME280;35698;50.232;30.540;2022-09-27T05:53:56;99184.98;;;22.62;48.76
49801;BME280;35698;50.232;30.540;2022-09-27T05:55:08;99182.44;;;22.75;48.60
49801;BME280;35698;50.232;30.540;2022-09-27T05:56:11;99188.97;;;22.66;48.64
49801;BME280;35698;50.232;30.540;2022-09-27T05:57:27;99184.59;;;22.79;48.58
49801;BME280;35698;50.232;30.540;2022-09-27T05:58:30;99189.23;;;22.71;48.56
49801;BME280;35698;50.232;30.540;2022-09-27T05:59:42;99185.69;;;22.85;48.53
49801;BME280;35698;50.232;30.540;2022-09-27T06:00:47;99184.11;;;22.76;48.45
49801;BME280;35698;50.232;30.540;2022-09-27T06:01:58;99189.28;;;22.92;48.42
49801;BME280;35698;50.232;30.540;2022-09-27T06:03:14;99190.23;;;22.84;48.44
49801;BME280;35698;50.232;30.540;2022-09-27T06:14:51;99189.27;;;23.13;48.28
49801;BME280;35698;50.232;30.540;2022-09-27T06:15:55;99188.57;;;23.05;48.20
49801;BME280;35698;50.232;30.540;2022-09-27T06:17:07;99185.99;;;23.18;47.95
49801;BME280;35698;50.232;30.540;2022-09-27T06:18:12;99185.94;;;23.11;47.87
49801;BME280;35698;50.232;30.540;2022-09-27T06:19:16;99196.71;;;23.11;47.74
49801;BME280;35698;50.232;30.540;2022-09-27T06:20:27;99191.44;;;23.25;47.70
49801;BME280;35698;50.232;30.540;2022-09-27T06:21:30;99187.41;;;23.14;47.63
49801;BME280;35698;50.232;30.540;2022-09-27T06:22:34;99179.97;;;23.16;47.70
49801;BME280;35698;50.232;30.540;2022-09-27T06:23:45;99189.19;;;23.28;47.85
49801;BME280;35698;50.232;30.540;2022-09-27T06:24:51;99187.66;;;23.19;47.81
49801;BME280;35698;50.232;30.540;2022-09-27T06:26:04;99186.11;;;23.31;47.75
49801;BME280;35698;50.232;30.540;2022-09-27T06:27:08;99191.00;;;23.21;47.73
49801;BME280;35698;50.232;30.540;2022-09-27T06:28:12;99185.61;;;23.21;47.78
49801;BME280;35698;50.232;30.540;2022-09-27T06:29:16;99185.99;;;23.18;47.87
49801;BME280;35698;50.232;30.540;2022-09-27T06:30:27;99190.86;;;23.29;47.96
49801;BME280;35698;50.232;30.540;2022-09-27T06:31:31;99183.94;;;23.20;47.88
49801;BME280;35698;50.232;30.540;2022-09-27T06:32:42;99186.11;;;23.31;47.80
49801;BME280;35698;50.232;30.540;2022-09-27T06:33:47;99187.28;;;23.22;47.73
49801;BME280;35698;50.232;30.540;2022-09-27T06:34:58;99186.50;;;23.28;47.75
49801;BME280;35698;50.232;30.540;2022-09-27T06:36:04;99190.94;;;23.14;47.95
49801;BME280;35698;50.232;30.540;2022-09-27T06:37:16;99192.66;;;23.22;48.19
49801;BME280;35698;50.232;30.540;2022-09-27T06:38:19;99180.10;;;23.08;48.34
49801;BME280;35698;50.232;30.540;2022-09-27T06:39:30;99189.02;;;23.08;48.59
49801;BME280;35698;50.232;30.540;2022-09-27T06:40:34;99192.03;;;22.99;48.60
49801;BME280;35698;50.232;30.540;2022-09-27T06:41:59;99196.77;;;23.18;48.10
49801;BME280;35698;50.232;30.540;2022-09-27T06:43:08;99197.29;;;23.07;48.16
49801;BME280;35698;50.232;30.540;2022-09-27T06:44:23;99197.55;;;23.12;48.42
49801;BME280;35698;50.232;30.540;2022-09-27T06:45:27;99198.77;;;22.88;48.83
49801;BME280;35698;50.232;30.540;2022-09-27T06:46:38;99195.50;;;22.93;49.35
49801;BME280;35698;50.232;30.540;2022-09-27T06:47:41;99193.95;;;22.83;49.41
49801;BME280;35698;50.232;30.540;2022-09-27T06:48:52;99180.81;;;22.95;49.66
49801;BME280;35698;50.232;30.540;2022-09-27T06:49:57;99192.83;;;22.78;49.86
49801;BME280;35698;50.232;30.540;2022-09-27T06:51:08;99190.11;;;22.93;50.32
49801;BME280;35698;50.232;30.540;2022-09-27T06:52:12;99190.62;;;22.81;50.12
49801;BME280;35698;50.232;30.540;2022-09-27T06:53:27;99187.80;;;22.89;50.11
49801;BME280;35698;50.232;30.540;2022-09-27T06:54:34;99190.97;;;22.78;49.87
49801;BME280;35698;50.232;30.540;2022-09-27T06:55:46;99191.13;;;22.92;49.76
49801;BME280;35698;50.232;30.540;2022-09-27T06:56:49;99184.84;;;22.84;49.88
49801;BME280;35698;50.232;30.540;2022-09-27T06:57:57;99179.46;;;22.84;49.79
49801;BME280;35698;50.232;30.540;2022-09-27T06:59:10;99176.90;;;22.98;49.83
49801;BME280;35698;50.232;30.540;2022-09-27T07:00:14;99183.05;;;22.92;49.83
49801;BME280;35698;50.232;30.540;2022-09-27T07:01:27;99175.10;;;23.05;49.68
49801;BME280;35698;50.232;30.540;2022-09-27T07:02:31;99176.90;;;22.98;49.64
49801;BME280;35698;50.232;30.540;2022-09-27T07:03:42;99180.36;;;23.13;51.01
49801;BME280;35698;50.232;30.540;2022-09-27T07:04:46;99173.44;;;23.04;52.21
49801;BME280;35698;50.232;30.540;2022-09-27T07:05:59;99179.77;;;23.17;52.01
49801;BME280;35698;50.232;30.540;2022-09-27T07:07:03;99185.10;;;23.11;52.08